Time;durP1;ratioP1;P1;durP2;ratioP2;P2;SDS_P1;SDS_P2;PMS_P1;PMS_P2;Temp;Humidity;BMP_temperature;BMP_pressure;BME280_temperature;BME280_humidity;BME280_pressure;Samples;Min_cycle;Max_cycle;Signal;HPM_P1;HPM_P2
2023/05/13 00:01:29;;;;;;;2.33;1.77;;;14.60;99.90;;;;;;7392423;19;20146;-78
2023/05/13 00:03:55;;;;;;;3.47;1.87;;;14.70;99.90;;;;;;7391202;19;20151;-79
2023/05/13 00:06:21;;;;;;;2.05;1.80;;;14.50;99.90;;;;;;7392299;19;20154;-78
2023/05/13 00:08:47;;;;;;;2.40;2.00;;;14.60;99.90;;;;;;7392149;19;20640;-78
2023/05/13 00:11:13;;;;;;;2.55;2.15;;;14.60;99.90;;;;;;7388641;19;20135;-78
2023/05/13 00:13:38;;;;;;;2.00;1.80;;;14.60;99.90;;;;;;7392215;19;20467;-79
2023/05/13 00:16:04;;;;;;;2.78;1.92;;;14.60;99.90;;;;;;7391936;19;20126;-78
2023/05/13 00:18:30;;;;;;;2.05;1.73;;;14.60;99.90;;;;;;7390562;19;20149;-78
2023/05/13 00:20:56;;;;;;;2.22;1.90;;;14.70;99.90;;;;;;7389800;19;20239;-77
2023/05/13 00:23:22;;;;;;;2.83;2.23;;;14.60;99.90;;;;;;7391912;19;20217;-77
2023/05/13 00:25:50;;;;;;;2.67;2.00;;;14.60;99.90;;;;;;7391444;19;20206;-77
2023/05/13 00:28:16;;;;;;;4.00;2.30;;;14.60;99.90;;;;;;7392141;19;20127;-77
2023/05/13 00:30:44;;;;;;;2.45;1.77;;;14.70;99.90;;;;;;7391676;19;20150;-77
2023/05/13 00:33:10;;;;;;;2.23;2.03;;;14.70;99.90;;;;;;7392277;19;20135;-78
2023/05/13 00:35:35;;;;;;;2.60;2.00;;;14.70;99.90;;;;;;7390546;19;20445;-77
2023/05/13 00:38:03;;;;;;;3.13;1.98;;;14.60;99.90;;;;;;7389657;19;20528;-78
2023/05/13 00:40:28;;;;;;;3.38;2.35;;;14.70;99.90;;;;;;7391387;19;20138;-78
2023/05/13 00:42:54;;;;;;;1.88;1.77;;;14.70;99.90;;;;;;7389996;19;20130;-78
2023/05/13 00:45:20;;;;;;;2.38;1.80;;;14.60;99.90;;;;;;7390896;19;20138;-79
2023/05/13 00:47:47;;;;;;;2.43;1.57;;;14.60;99.90;;;;;;7394445;19;20151;-79
2023/05/13 00:50:13;;;;;;;2.70;1.80;;;14.60;99.90;;;;;;7390155;19;20151;-77
2023/05/13 00:52:40;;;;;;;2.20;2.00;;;14.60;99.90;;;;;;7391469;19;20562;-77
2023/05/13 00:55:08;;;;;;;2.80;2.00;;;14.60;99.90;;;;;;7392105;19;20446;-78
2023/05/13 00:57:34;;;;;;;2.20;1.93;;;14.60;99.90;;;;;;7392405;19;20130;-79
2023/05/13 01:00:02;;;;;;;2.10;1.90;;;14.60;99.90;;;;;;7387582;19;20131;-78
2023/05/13 01:03:01;;;;;;;5.10;2.30;;;14.50;99.90;;;;;;7389801;19;20134;-78
2023/05/13 01:05:48;;;;;;;2.83;2.17;;;14.50;99.90;;;;;;7391281;19;20141;-79
2023/05/13 01:08:56;;;;;;;2.77;1.90;;;14.50;99.90;;;;;;7389338;19;20138;-78
2023/05/13 01:11:26;;;;;;;2.23;2.00;;;14.40;99.90;;;;;;7390358;19;20181;-78
2023/05/13 01:14:01;;;;;;;1.97;1.77;;;14.40;99.90;;;;;;7392002;19;20618;-79
2023/05/13 01:16:33;;;;;;;2.20;1.70;;;14.50;99.90;;;;;;7391102;19;20232;-77
2023/05/13 01:19:05;;;;;;;2.43;2.23;;;14.50;99.90;;;;;;7386792;19;20503;-79
2023/05/13 01:21:35;;;;;;;2.63;2.40;;;14.40;99.90;;;;;;7390466;19;20130;-78
2023/05/13 01:24:01;;;;;;;2.20;2.00;;;14.40;99.90;;;;;;7390113;19;20628;-79
2023/05/13 01:26:28;;;;;;;2.27;2.00;;;14.40;99.90;;;;;;7391480;19;20142;-78
2023/05/13 01:28:54;;;;;;;3.37;1.73;;;14.30;99.90;;;;;;7390847;19;20146;-78
2023/05/13 01:31:21;;;;;;;2.47;2.20;;;14.30;99.90;;;;;;7388515;19;20130;-78
2023/05/13 01:33:48;;;;;;;2.95;2.10;;;14.30;99.90;;;;;;7389298;19;20151;-78
2023/05/13 01:36:14;;;;;;;2.63;1.90;;;14.30;99.90;;;;;;7388980;19;20622;-78
2023/05/13 01:38:41;;;;;;;2.05;1.80;;;14.20;99.90;;;;;;7387447;19;20143;-77
2023/05/13 01:41:06;;;;;;;5.40;2.07;;;14.20;99.90;;;;;;7389385;19;20154;-79
2023/05/13 01:43:32;;;;;;;3.50;2.10;;;14.10;99.90;;;;;;7389787;19;20157;-78
2023/05/13 01:45:59;;;;;;;2.00;1.80;;;14.00;99.90;;;;;;7388498;19;20519;-78
2023/05/13 01:48:25;;;;;;;3.40;2.15;;;14.00;99.90;;;;;;7388888;19;20225;-78
2023/05/13 01:50:53;;;;;;;2.10;1.90;;;14.10;99.90;;;;;;7388170;19;20241;-77
2023/05/13 01:53:19;;;;;;;2.40;2.20;;;14.00;99.90;;;;;;7389364;19;20190;-78
2023/05/13 01:55:45;;;;;;;3.97;2.20;;;13.90;99.90;;;;;;7388821;19;20484;-77
2023/05/13 01:58:10;;;;;;;2.33;2.00;;;13.90;99.90;;;;;;7388659;19;20139;-77
2023/05/13 02:00:36;;;;;;;2.37;2.07;;;13.80;99.90;;;;;;7387679;19;20138;-79
2023/05/13 02:03:02;;;;;;;4.63;1.93;;;13.80;99.90;;;;;;7386557;19;20218;-77
2023/05/13 02:05:30;;;;;;;2.47;2.20;;;13.70;99.90;;;;;;7386811;19;20138;-77
2023/05/13 02:07:56;;;;;;;2.17;1.70;;;13.70;99.90;;;;;;7377318;19;20133;-78
2023/05/13 02:10:21;;;;;;;2.07;1.87;;;13.70;99.90;;;;;;7387244;19;20131;-78
2023/05/13 02:12:47;;;;;;;2.27;1.97;;;13.60;99.90;;;;;;7391160;19;20581;-77
2023/05/13 02:15:13;;;;;;;3.85;2.20;;;13.50;99.90;;;;;;7389583;19;20178;-77
2023/05/13 02:17:39;;;;;;;2.70;1.83;;;13.70;99.90;;;;;;7388512;19;20165;-77
2023/05/13 02:20:06;;;;;;;2.20;1.88;;;13.70;99.90;;;;;;7384511;19;20165;-78
2023/05/13 02:22:31;;;;;;;2.10;1.90;;;13.70;99.90;;;;;;7386884;19;20166;-78
2023/05/13 02:24:57;;;;;;;3.60;1.83;;;13.70;99.90;;;;;;7388137;19;20145;-78
2023/05/13 02:27:23;;;;;;;2.40;1.93;;;13.70;99.90;;;;;;7387868;19;20178;-78
2023/05/13 02:29:49;;;;;;;2.78;2.10;;;13.70;99.90;;;;;;7387922;19;20154;-78
2023/05/13 02:32:15;;;;;;;7.20;2.08;;;13.70;99.90;;;;;;7386959;19;20489;-78
2023/05/13 02:34:40;;;;;;;2.00;1.80;;;13.70;99.90;;;;;;7387656;19;20157;-77
2023/05/13 02:37:06;;;;;;;1.80;1.70;;;13.70;99.90;;;;;;7385889;19;20186;-77
2023/05/13 02:39:32;;;;;;;2.43;1.80;;;13.70;99.90;;;;;;7383680;19;20173;-77
2023/05/13 02:41:58;;;;;;;5.20;1.80;;;13.70;99.90;;;;;;7388343;19;20181;-78
2023/05/13 02:44:24;;;;;;;1.70;1.60;;;13.70;99.90;;;;;;7385315;19;20165;-77
2023/05/13 02:46:50;;;;;;;1.90;1.70;;;13.70;99.90;;;;;;7389977;19;20138;-78
2023/05/13 02:49:16;;;;;;;3.07;2.07;;;13.80;99.90;;;;;;7385656;19;20149;-77
2023/05/13 02:51:41;;;;;;;3.50;1.67;;;13.70;99.90;;;;;;7388657;19;20142;-79
2023/05/13 02:54:07;;;;;;;3.47;1.70;;;13.60;99.90;;;;;;7378013;19;20454;-78
2023/05/13 02:56:33;;;;;;;3.40;1.80;;;13.70;99.90;;;;;;7386562;19;20138;-77
2023/05/13 02:58:59;;;;;;;2.70;1.60;;;13.70;99.90;;;;;;7382858;19;20162;-77
2023/05/13 03:01:25;;;;;;;1.90;1.70;;;13.60;99.90;;;;;;7383491;19;20161;-77
2023/05/13 03:03:51;;;;;;;1.83;1.70;;;13.70;99.90;;;;;;7385347;19;20142;-77
2023/05/13 03:06:17;;;;;;;3.07;1.73;;;13.60;99.90;;;;;;7386881;19;20146;-77
2023/05/13 03:08:43;;;;;;;2.10;1.73;;;13.60;99.90;;;;;;7388775;19;20143;-77
2023/05/13 03:11:08;;;;;;;2.63;2.13;;;13.60;99.90;;;;;;7386927;19;20617;-78
2023/05/13 03:13:34;;;;;;;2.15;1.70;;;13.60;99.90;;;;;;7387064;19;20637;-78
2023/05/13 03:16:00;;;;;;;2.03;1.83;;;13.50;99.90;;;;;;7388357;19;20487;-78
2023/05/13 03:18:27;;;;;;;2.00;1.80;;;13.60;99.90;;;;;;7386947;19;20135;-76
2023/05/13 03:20:53;;;;;;;2.77;1.97;;;13.60;99.90;;;;;;7386744;19;20150;-79
2023/05/13 03:23:20;;;;;;;3.37;1.80;;;13.60;99.90;;;;;;7387888;19;20150;-77
2023/05/13 03:25:46;;;;;;;1.77;1.67;;;13.50;99.90;;;;;;7385632;19;20156;-78
2023/05/13 03:28:11;;;;;;;2.33;1.97;;;13.50;99.90;;;;;;7388007;19;20190;-77
2023/05/13 03:30:37;;;;;;;2.43;1.50;;;13.50;99.90;;;;;;7385461;19;20621;-77
2023/05/13 03:33:03;;;;;;;2.10;1.80;;;13.50;99.90;;;;;;7385005;19;20141;-79
2023/05/13 03:35:29;;;;;;;4.23;1.73;;;13.50;99.90;;;;;;7383359;19;20138;-77
2023/05/13 03:37:55;;;;;;;2.20;1.93;;;13.50;99.90;;;;;;7386491;19;20160;-78
2023/05/13 03:40:20;;;;;;;4.83;1.70;;;13.40;99.90;;;;;;7383001;19;20131;-77
2023/05/13 03:42:46;;;;;;;2.40;2.20;;;13.40;99.90;;;;;;7386460;19;20131;-78
2023/05/13 03:45:12;;;;;;;2.20;2.00;;;13.40;99.90;;;;;;7386023;19;20146;-78
2023/05/13 03:47:38;;;;;;;2.07;1.73;;;13.60;99.90;;;;;;7387901;19;20151;-77
2023/05/13 03:50:04;;;;;;;3.03;2.27;;;13.40;99.90;;;;;;7384029;19;20146;-76
2023/05/13 03:52:30;;;;;;;2.60;1.90;;;13.40;99.90;;;;;;7386449;19;20131;-76
2023/05/13 03:54:56;;;;;;;1.90;1.80;;;13.40;99.90;;;;;;7385964;19;20608;-78
2023/05/13 03:57:21;;;;;;;1.90;1.57;;;13.40;99.90;;;;;;7386950;19;20198;-77
2023/05/13 03:59:47;;;;;;;2.60;2.27;;;13.40;99.90;;;;;;7382082;19;20130;-78
2023/05/13 04:02:13;;;;;;;1.80;1.60;;;13.30;99.90;;;;;;7385418;19;20649;-78
2023/05/13 04:04:39;;;;;;;2.60;1.97;;;13.30;99.90;;;;;;7384087;19;20480;-77
2023/05/13 04:07:04;;;;;;;2.47;1.97;;;13.40;99.90;;;;;;7384864;19;20147;-78
2023/05/13 04:09:30;;;;;;;2.17;1.90;;;13.40;99.90;;;;;;7383131;19;20143;-77
2023/05/13 04:11:56;;;;;;;2.13;2.00;;;13.30;99.90;;;;;;7384022;19;20225;-78
2023/05/13 04:14:22;;;;;;;2.30;2.10;;;13.40;99.90;;;;;;7382816;19;20304;-76
2023/05/13 04:16:49;;;;;;;2.10;1.90;;;13.40;99.90;;;;;;7386489;19;20143;-78
2023/05/13 04:19:15;;;;;;;4.03;2.30;;;13.40;99.90;;;;;;7382413;19;20143;-79
2023/05/13 04:21:41;;;;;;;2.10;1.90;;;13.40;99.90;;;;;;7385027;19;20149;-77
2023/05/13 04:24:06;;;;;;;3.35;1.95;;;13.30;99.90;;;;;;7383838;19;20140;-78
2023/05/13 04:26:32;;;;;;;3.53;2.10;;;13.40;99.90;;;;;;7389411;19;20143;-77
2023/05/13 04:28:58;;;;;;;2.30;2.10;;;13.40;99.90;;;;;;7391834;19;20150;-77
2023/05/13 04:31:25;;;;;;;2.00;1.80;;;13.30;99.90;;;;;;7392621;19;20477;-78
2023/05/13 04:33:51;;;;;;;2.13;1.93;;;13.30;99.90;;;;;;7392273;19;20187;-77
2023/05/13 04:36:17;;;;;;;1.80;1.70;;;13.30;99.90;;;;;;7392364;19;20138;-78
2023/05/13 04:38:42;;;;;;;2.47;1.80;;;13.50;99.90;;;;;;7390426;19;20134;-77
2023/05/13 04:41:08;;;;;;;2.70;1.87;;;13.40;99.90;;;;;;7391911;19;20142;-77
2023/05/13 04:43:34;;;;;;;1.90;1.80;;;13.30;99.90;;;;;;7390386;19;20139;-77
2023/05/13 04:45:59;;;;;;;4.37;1.70;;;13.40;99.90;;;;;;7390657;19;20138;-77
2023/05/13 04:48:29;;;;;;;2.30;1.70;;;13.40;99.90;;;;;;7389495;19;20148;-78
2023/05/13 04:50:55;;;;;;;1.73;1.63;;;13.40;99.90;;;;;;7392127;19;20142;-79
2023/05/13 04:53:22;;;;;;;1.77;1.67;;;13.40;99.90;;;;;;7390322;19;20139;-78
2023/05/13 04:55:49;;;;;;;2.00;1.80;;;13.30;99.90;;;;;;7393082;19;20182;-77
2023/05/13 04:58:15;;;;;;;2.33;1.87;;;13.40;99.90;;;;;;7388481;19;20475;-78
2023/05/13 05:00:41;;;;;;;1.90;1.63;;;13.30;99.90;;;;;;7390734;19;20750;-79
2023/05/13 05:03:06;;;;;;;2.23;2.00;;;13.30;99.90;;;;;;7388485;19;20126;-77
2023/05/13 05:05:32;;;;;;;2.73;2.07;;;13.30;99.90;;;;;;7390383;19;20605;-77
2023/05/13 05:07:58;;;;;;;2.50;1.90;;;13.40;99.90;;;;;;7391767;19;20228;-78
2023/05/13 05:10:24;;;;;;;2.73;2.03;;;13.30;99.90;;;;;;7388485;19;20127;-79
2023/05/13 05:12:49;;;;;;;2.50;2.07;;;13.30;99.90;;;;;;7389549;19;20173;-77
2023/05/13 05:15:15;;;;;;;4.33;2.03;;;13.20;99.90;;;;;;7389543;19;20620;-79
2023/05/13 05:17:44;;;;;;;2.17;1.97;;;13.30;99.90;;;;;;7389890;19;20274;-78
2023/05/13 05:20:10;;;;;;;5.13;2.00;;;13.40;99.90;;;;;;7385327;19;20171;-77
2023/05/13 05:22:37;;;;;;;2.37;1.93;;;13.40;99.90;;;;;;7389217;19;20540;-77
2023/05/13 05:25:03;;;;;;;3.50;1.70;;;13.40;99.90;;;;;;7389407;19;20548;-78
2023/05/13 05:27:29;;;;;;;2.90;1.93;;;13.40;99.90;;;;;;7388163;19;20154;-77
2023/05/13 05:29:55;;;;;;;2.40;1.90;;;13.50;99.90;;;;;;7389448;19;20134;-78
2023/05/13 05:32:20;;;;;;;4.23;2.23;;;13.50;99.90;;;;;;7387429;19;20146;-77
2023/05/13 05:34:46;;;;;;;2.43;1.70;;;13.50;99.90;;;;;;7390952;19;20154;-77
2023/05/13 05:37:12;;;;;;;3.00;2.07;;;13.50;99.90;;;;;;7388168;19;20130;-78
2023/05/13 05:39:39;;;;;;;1.70;1.60;;;13.60;99.90;;;;;;7384970;19;20205;-75
2023/05/13 05:42:06;;;;;;;3.00;2.10;;;13.60;99.90;;;;;;7388256;19;20218;-77
2023/05/13 05:44:32;;;;;;;2.93;2.53;;;13.50;99.90;;;;;;7386447;19;20206;-78
2023/05/13 05:46:58;;;;;;;2.70;1.80;;;13.50;99.90;;;;;;7388593;19;20139;-77
2023/05/13 05:49:24;;;;;;;2.80;2.25;;;13.60;99.90;;;;;;7387601;19;20726;-78
2023/05/13 05:51:50;;;;;;;5.07;1.80;;;13.50;99.90;;;;;;7389342;19;20142;-76
2023/05/13 05:54:15;;;;;;;2.13;1.93;;;13.50;99.90;;;;;;7387716;19;20478;-77
2023/05/13 05:56:41;;;;;;;1.73;1.63;;;13.50;99.90;;;;;;7389207;19;20139;-78
2023/05/13 05:59:07;;;;;;;2.90;2.60;;;13.50;99.90;;;;;;7384570;19;20154;-76
2023/05/13 06:01:35;;;;;;;4.50;2.37;;;13.50;99.90;;;;;;7386988;19;20134;-76
2023/05/13 06:04:02;;;;;;;2.67;2.33;;;13.50;99.90;;;;;;7386892;19;20138;-76
2023/05/13 06:06:28;;;;;;;3.87;2.07;;;13.50;99.90;;;;;;7387525;19;20554;-77
2023/05/13 06:08:53;;;;;;;2.80;2.53;;;13.60;99.90;;;;;;7385737;19;20199;-76
2023/05/13 06:11:19;;;;;;;4.93;2.57;;;13.60;99.90;;;;;;7384992;19;20165;-77
2023/05/13 06:13:45;;;;;;;2.90;2.33;;;13.50;99.90;;;;;;7386334;19;20156;-78
2023/05/13 06:16:11;;;;;;;2.63;2.10;;;13.50;99.90;;;;;;7386848;19;20154;-77
2023/05/13 06:18:36;;;;;;;3.07;2.30;;;13.50;99.90;;;;;;7383829;19;20165;-76
2023/05/13 06:21:02;;;;;;;3.07;2.07;;;13.50;99.90;;;;;;7386896;19;20145;-76
2023/05/13 06:23:28;;;;;;;3.37;1.90;;;13.60;99.90;;;;;;7382659;19;20131;-78
2023/05/13 06:25:54;;;;;;;3.20;2.03;;;13.50;99.90;;;;;;7378453;19;20142;-77
2023/05/13 06:28:20;;;;;;;2.50;2.30;;;13.40;99.90;;;;;;7381111;19;20138;-77
2023/05/13 06:30:45;;;;;;;2.20;2.00;;;13.50;99.90;;;;;;7379742;19;20146;-76
2023/05/13 06:33:11;;;;;;;2.50;2.20;;;13.50;99.90;;;;;;7380512;19;20147;-76
2023/05/13 06:35:37;;;;;;;2.27;2.07;;;13.50;99.90;;;;;;7378121;19;20158;-76
2023/05/13 06:38:03;;;;;;;2.00;1.80;;;13.60;99.90;;;;;;7380944;19;20146;-77
2023/05/13 06:40:29;;;;;;;2.40;2.13;;;13.60;99.90;;;;;;7381795;19;20582;-78
2023/05/13 06:42:55;;;;;;;3.40;2.30;;;13.50;99.90;;;;;;7385979;19;20149;-78
2023/05/13 06:45:22;;;;;;;6.43;2.27;;;13.50;99.90;;;;;;7383865;19;20143;-78
2023/05/13 06:47:52;;;;;;;2.47;2.20;;;13.60;99.90;;;;;;7387358;19;20142;-76
2023/05/13 06:50:18;;;;;;;5.20;2.60;;;13.60;99.90;;;;;;7384520;19;20130;-76
2023/05/13 06:52:44;;;;;;;4.27;2.77;;;13.50;99.90;;;;;;7385497;19;20673;-77
2023/05/13 06:55:10;;;;;;;3.07;2.67;;;13.60;99.90;;;;;;7386476;19;20154;-77
2023/05/13 06:57:36;;;;;;;3.37;2.57;;;13.70;99.90;;;;;;7385818;19;20154;-76
2023/05/13 07:00:02;;;;;;;4.47;2.83;;;13.60;99.90;;;;;;7383154;19;20160;-77
2023/05/13 07:02:28;;;;;;;4.27;3.13;;;13.60;99.90;;;;;;7385952;19;20138;-76
2023/05/13 07:04:54;;;;;;;4.60;2.50;;;13.70;99.90;;;;;;7385295;19;20157;-77
2023/05/13 07:07:19;;;;;;;3.23;2.43;;;13.80;99.90;;;;;;7391062;19;20214;-76
2023/05/13 07:09:45;;;;;;;3.17;2.30;;;13.80;99.90;;;;;;7384945;19;20173;-76
2023/05/13 07:12:11;;;;;;;3.13;2.40;;;13.80;99.90;;;;;;7385863;19;20253;-77
2023/05/13 07:14:37;;;;;;;3.77;2.30;;;13.70;99.90;;;;;;7384982;19;20146;-77
2023/05/13 07:17:06;;;;;;;2.43;2.13;;;13.80;99.90;;;;;;7386060;19;20621;-76
2023/05/13 07:19:32;;;;;;;3.10;2.80;;;13.80;99.90;;;;;;7382985;19;20151;-74
2023/05/13 07:21:58;;;;;;;3.37;2.67;;;14.00;99.90;;;;;;7388574;19;20159;-77
2023/05/13 07:24:23;;;;;;;4.07;2.83;;;13.90;99.90;;;;;;7386367;19;21114;-75
2023/05/13 07:26:49;;;;;;;3.40;2.37;;;14.00;99.90;;;;;;7382961;19;20913;-77
2023/05/13 07:29:15;;;;;;;2.45;2.25;;;13.90;99.90;;;;;;7383741;19;20558;-79
2023/05/13 07:31:41;;;;;;;2.70;2.20;;;14.00;99.90;;;;;;7385343;19;20625;-78
2023/05/13 07:34:06;;;;;;;3.93;2.37;;;14.00;99.90;;;;;;7387615;19;20131;-77
2023/05/13 07:36:32;;;;;;;2.33;2.13;;;14.10;99.90;;;;;;7384590;19;20150;-76
2023/05/13 07:38:58;;;;;;;3.27;2.50;;;14.10;99.90;;;;;;7380682;19;20135;-75
2023/05/13 07:41:26;;;;;;;2.55;2.17;;;14.10;99.90;;;;;;7381118;19;20275;-74
2023/05/13 07:43:52;;;;;;;2.90;2.50;;;14.10;99.90;;;;;;7382835;19;20138;-76
2023/05/13 07:46:18;;;;;;;4.93;2.70;;;14.10;99.90;;;;;;7384824;19;20164;-76
2023/05/13 07:48:43;;;;;;;3.13;2.50;;;14.10;99.90;;;;;;7383879;19;20234;-77
2023/05/13 07:51:09;;;;;;;2.60;2.40;;;14.20;99.90;;;;;;7384380;19;20664;-78
2023/05/13 07:53:35;;;;;;;2.23;2.03;;;14.30;99.90;;;;;;7383356;19;20147;-74
2023/05/13 07:56:02;;;;;;;4.40;2.77;;;14.40;99.90;;;;;;7385085;19;20168;-76
2023/05/13 07:58:27;;;;;;;3.10;2.80;;;14.40;99.90;;;;;;7385114;19;20160;-76
2023/05/13 08:00:53;;;;;;;3.57;2.37;;;14.40;99.90;;;;;;7384678;19;20638;-76
2023/05/13 08:03:19;;;;;;;2.50;1.97;;;14.40;99.90;;;;;;7390308;19;20503;-77
2023/05/13 08:05:46;;;;;;;2.23;2.00;;;14.40;99.90;;;;;;7390333;19;20150;-81
2023/05/13 08:08:12;;;;;;;4.80;2.50;;;14.40;99.90;;;;;;7390602;19;20472;-78
2023/05/13 08:10:38;;;;;;;4.97;2.30;;;14.40;99.90;;;;;;7387037;19;20221;-76
2023/05/13 08:13:04;;;;;;;7.15;2.40;;;14.40;99.90;;;;;;7390970;19;20513;-77
2023/05/13 08:15:29;;;;;;;2.70;2.50;;;14.50;99.90;;;;;;7389497;19;20131;-75
2023/05/13 08:17:55;;;;;;;3.70;2.63;;;14.40;99.90;;;;;;7387519;19;20586;-74
2023/05/13 08:20:28;;;;;;;3.53;2.70;;;14.40;99.90;;;;;;7385051;19;20605;-76
2023/05/13 08:22:55;;;;;;;2.63;2.37;;;14.60;99.90;;;;;;7387982;19;20138;-76
2023/05/13 08:25:21;;;;;;;4.80;2.73;;;14.50;99.90;;;;;;7383209;19;20527;-75
2023/05/13 08:27:46;;;;;;;3.93;3.23;;;14.50;99.90;;;;;;7387621;19;20211;-74
2023/05/13 08:30:15;;;;;;;3.10;2.53;;;14.50;99.90;;;;;;7387174;19;20159;-73
2023/05/13 08:32:41;;;;;;;5.07;2.60;;;14.50;99.90;;;;;;7390831;19;20154;-73
2023/05/13 08:35:07;;;;;;;3.37;2.73;;;14.50;99.90;;;;;;7387034;19;20146;-72
2023/05/13 08:37:33;;;;;;;2.53;2.33;;;14.50;99.90;;;;;;7388677;19;20177;-73
2023/05/13 08:40:00;;;;;;;4.00;2.50;;;14.40;99.90;;;;;;7384477;19;20471;-74
2023/05/13 08:42:31;;;;;;;2.77;2.37;;;14.40;99.90;;;;;;7390747;19;20155;-78
2023/05/13 08:44:57;;;;;;;2.90;2.33;;;14.30;99.90;;;;;;7387253;19;20214;-75
2023/05/13 08:47:35;;;;;;;3.27;2.77;;;14.30;99.90;;;;;;7389515;19;20154;-75
2023/05/13 08:50:01;;;;;;;3.60;2.83;;;14.30;99.90;;;;;;7387412;19;20139;-76
2023/05/13 08:52:27;;;;;;;3.93;2.77;;;14.20;99.90;;;;;;7390376;19;20594;-75
2023/05/13 08:54:55;;;;;;;3.33;2.70;;;14.20;99.90;;;;;;7387211;19;20137;-74
2023/05/13 08:57:20;;;;;;;4.53;3.10;;;14.20;99.90;;;;;;7389044;19;20218;-74
2023/05/13 08:59:46;;;;;;;5.10;3.03;;;14.10;99.90;;;;;;7385870;19;20155;-76
2023/05/13 09:02:12;;;;;;;3.20;2.80;;;14.20;99.90;;;;;;7388437;19;20168;-75
2023/05/13 09:04:41;;;;;;;6.40;3.00;;;14.30;99.90;;;;;;7387989;19;20455;-74
2023/05/13 09:07:07;;;;;;;3.77;2.77;;;14.40;99.90;;;;;;7388404;19;20138;-73
2023/05/13 09:09:33;;;;;;;3.80;3.10;;;14.40;99.90;;;;;;7388356;19;20142;-74
2023/05/13 09:11:59;;;;;;;3.72;2.88;;;14.50;99.90;;;;;;7386932;19;20618;-72
2023/05/13 09:14:31;;;;;;;4.50;2.97;;;14.50;99.90;;;;;;7385830;19;20170;-73
2023/05/13 09:16:57;;;;;;;2.93;2.53;;;14.50;99.90;;;;;;7388433;19;20130;-74
2023/05/13 09:19:24;;;;;;;3.83;2.90;;;14.60;99.90;;;;;;7386329;19;20503;-74
2023/05/13 09:21:52;;;;;;;4.77;2.77;;;14.50;99.90;;;;;;7389811;19;20131;-75
2023/05/13 09:24:20;;;;;;;3.17;2.83;;;14.50;99.90;;;;;;7389106;19;20173;-74
2023/05/13 09:26:47;;;;;;;3.97;2.60;;;14.50;99.90;;;;;;7389102;19;20158;-74
2023/05/13 09:29:13;;;;;;;4.37;2.80;;;14.50;99.90;;;;;;7387824;19;20149;-73
2023/05/13 09:31:39;;;;;;;3.17;2.55;;;14.60;99.90;;;;;;7390782;19;20210;-72
2023/05/13 09:34:05;;;;;;;2.97;2.50;;;14.60;99.90;;;;;;7389283;19;20488;-74
2023/05/13 09:36:31;;;;;;;3.07;2.30;;;14.60;99.90;;;;;;7386784;19;20185;-73
2023/05/13 09:38:58;;;;;;;3.43;2.47;;;14.80;99.90;;;;;;7387483;19;20559;-75
2023/05/13 09:41:26;;;;;;;4.20;3.20;;;14.90;99.90;;;;;;7387255;19;20138;-73
2023/05/13 09:43:52;;;;;;;3.38;2.83;;;14.90;99.90;;;;;;7388329;19;20150;-74
2023/05/13 09:46:17;;;;;;;4.47;3.13;;;14.80;99.90;;;;;;7384623;19;20550;-74
2023/05/13 09:48:43;;;;;;;6.75;4.93;;;14.90;99.90;;;;;;7384250;19;20405;-75
2023/05/13 09:51:09;;;;;;;3.00;2.33;;;15.00;99.90;;;;;;7384550;19;20138;-72
2023/05/13 09:53:35;;;;;;;2.57;2.30;;;15.00;99.90;;;;;;7385083;19;20152;-74
2023/05/13 09:56:00;;;;;;;5.63;2.30;;;15.10;99.90;;;;;;7382925;19;20142;-75
2023/05/13 09:58:29;;;;;;;2.60;2.40;;;15.10;99.90;;;;;;7380985;19;20214;-74
2023/05/13 10:00:56;;;;;;;3.42;2.60;;;15.10;99.90;;;;;;7384884;19;20165;-73
2023/05/13 10:03:22;;;;;;;4.10;3.00;;;15.10;99.90;;;;;;7386879;19;20218;-72
2023/05/13 10:05:48;;;;;;;2.77;2.50;;;15.10;99.90;;;;;;7387210;19;22060;-73
2023/05/13 10:08:17;;;;;;;5.35;2.30;;;15.10;99.90;;;;;;7389010;19;20218;-72
2023/05/13 10:10:44;;;;;;;2.90;2.60;;;14.80;99.90;;;;;;7388195;19;20141;-74
2023/05/13 10:13:16;;;;;;;4.50;2.53;;;15.00;99.90;;;;;;7388323;19;20168;-76
2023/05/13 10:15:49;;;;;;;2.85;2.35;;;15.20;99.90;;;;;;7382759;19;20586;-75
2023/05/13 10:18:16;;;;;;;2.70;2.28;;;15.40;99.90;;;;;;7388351;19;20150;-75
2023/05/13 10:20:42;;;;;;;2.30;1.90;;;15.50;99.90;;;;;;7385673;19;20501;-74
2023/05/13 10:23:10;;;;;;;4.20;2.70;;;15.50;99.90;;;;;;7385692;19;20153;-75
2023/05/13 10:25:36;;;;;;;3.38;1.85;;;15.40;99.90;;;;;;7385711;19;20170;-74
2023/05/13 10:28:03;;;;;;;2.08;1.83;;;15.50;99.90;;;;;;7387897;19;20154;-75
2023/05/13 10:30:32;;;;;;;2.00;1.80;;;15.60;99.90;;;;;;7386821;19;20141;-75
2023/05/13 10:33:00;;;;;;;4.72;2.13;;;15.60;99.90;;;;;;7386985;19;20590;-78
2023/05/13 10:35:35;;;;;;;2.78;2.30;;;15.40;99.90;;;;;;7387588;19;20150;-74
2023/05/13 10:38:42;;;;;;;4.50;2.20;;;15.40;99.90;;;;;;7387133;19;20145;-74
2023/05/13 10:41:21;;;;;;;4.32;3.72;;;15.50;99.90;;;;;;7384203;19;20187;-76
2023/05/13 10:43:56;;;;;;;4.93;3.55;;;15.50;99.90;;;;;;7386442;19;20230;-74
2023/05/13 10:46:23;;;;;;;6.80;2.63;;;15.50;99.90;;;;;;7386002;19;20270;-74
2023/05/13 10:48:53;;;;;;;4.85;3.13;;;15.40;99.90;;;;;;7386126;19;20172;-76
2023/05/13 10:51:26;;;;;;;3.92;3.15;;;15.30;99.90;;;;;;7383264;19;20218;-77
2023/05/13 10:53:57;;;;;;;2.50;2.30;;;15.30;99.90;;;;;;7383417;19;20147;-76
2023/05/13 10:56:25;;;;;;;5.47;3.53;;;15.20;99.90;;;;;;7386834;19;20150;-76
2023/05/13 10:59:04;;;;;;;3.50;2.80;;;15.20;99.90;;;;;;7384849;19;20150;-76
2023/05/13 11:01:42;;;;;;;6.05;3.55;;;15.20;99.90;;;;;;7386774;19;20149;-74
2023/05/13 11:04:13;;;;;;;3.65;2.53;;;15.20;99.90;;;;;;7385634;19;20146;-77
2023/05/13 11:06:41;;;;;;;11.90;9.05;;;15.20;99.90;;;;;;7386150;19;20135;-77
2023/05/13 11:09:27;;;;;;;13.45;9.13;;;15.30;99.90;;;;;;7385043;19;20236;-76
2023/05/13 11:11:58;;;;;;;20.48;13.90;;;15.50;99.90;;;;;;7384269;19;20548;-77
2023/05/13 11:14:29;;;;;;;7.78;5.32;;;15.60;99.90;;;;;;7385123;19;20144;-76
2023/05/13 11:17:01;;;;;;;3.85;3.28;;;15.70;99.90;;;;;;7386319;19;20145;-76
2023/05/13 11:19:31;;;;;;;3.63;3.10;;;15.90;99.90;;;;;;7382941;19;20202;-76
2023/05/13 11:22:18;;;;;;;3.40;2.85;;;15.90;99.90;;;;;;7385205;19;20154;-76
2023/05/13 11:24:45;;;;;;;2.90;2.50;;;15.90;99.90;;;;;;7384001;19;20489;-78
2023/05/13 11:27:16;;;;;;;3.05;2.60;;;15.90;99.90;;;;;;7385035;19;20142;-77
2023/05/13 11:29:55;;;;;;;3.35;2.63;;;15.90;99.90;;;;;;7384597;19;20154;-77
2023/05/13 11:32:46;;;;;;;4.38;2.83;;;15.90;99.90;;;;;;7384779;19;20146;-76
2023/05/13 11:35:17;;;;;;;5.00;3.10;;;15.80;99.90;;;;;;7385534;19;21980;-82
2023/05/13 11:37:43;;;;;;;2.80;2.60;;;15.90;99.90;;;;;;7393510;19;20139;-82
2023/05/13 11:40:12;;;;;;;3.70;2.78;;;15.90;99.90;;;;;;7390153;19;20154;-81
2023/05/13 11:42:38;;;;;;;3.40;2.60;;;15.80;99.90;;;;;;7391039;19;20160;-80
2023/05/13 11:45:06;;;;;;;2.78;2.25;;;15.80;99.90;;;;;;7390658;19;20150;-83
2023/05/13 11:47:31;;;;;;;3.13;2.50;;;15.80;99.90;;;;;;7393606;19;20281;-81
2023/05/13 11:49:58;;;;;;;2.42;2.22;;;15.70;99.90;;;;;;7392556;19;20150;-84
2023/05/13 11:52:23;;;;;;;4.35;3.30;;;15.90;99.90;;;;;;7392025;19;20156;-85
2023/05/13 11:54:53;;;;;;;2.85;2.58;;;15.80;99.90;;;;;;7390971;19;20535;-82
2023/05/13 11:57:21;;;;;;;3.55;2.85;;;15.80;99.90;;;;;;7391533;19;20587;-82
2023/05/13 11:59:58;;;;;;;6.07;4.93;;;15.80;99.90;;;;;;7388906;19;20150;-79
2023/05/13 12:02:33;;;;;;;5.55;4.35;;;15.90;99.90;;;;;;7391498;19;20142;-79
2023/05/13 12:05:07;;;;;;;9.65;6.70;;;15.80;99.90;;;;;;7392435;19;20526;-80
2023/05/13 12:07:34;;;;;;;3.05;2.75;;;15.80;99.90;;;;;;7387888;19;20658;-80
2023/05/13 12:10:01;;;;;;;3.08;2.47;;;15.80;99.90;;;;;;7393089;19;20570;-80
2023/05/13 12:12:28;;;;;;;3.05;2.72;;;15.80;99.90;;;;;;7391050;19;20232;-79
2023/05/13 12:14:59;;;;;;;2.42;2.15;;;15.70;99.90;;;;;;7393645;19;20154;-80
2023/05/13 12:17:25;;;;;;;3.58;2.05;;;15.80;99.90;;;;;;7392765;19;20135;-78
2023/05/13 12:20:19;;;;;;;4.03;2.50;;;15.80;99.90;;;;;;7390225;19;20725;-80
2023/05/13 12:22:44;;;;;;;4.50;2.88;;;15.70;99.90;;;;;;7390913;19;20598;-79
2023/05/13 12:25:38;;;;;;;2.22;2.03;;;15.60;99.90;;;;;;7391171;19;20163;-78
2023/05/13 12:28:17;;;;;;;4.75;2.55;;;15.70;99.90;;;;;;7390792;19;20150;-80
2023/05/13 12:30:54;;;;;;;8.43;2.50;;;15.70;99.90;;;;;;7389743;19;20152;-80
2023/05/13 12:33:40;;;;;;;4.18;2.90;;;15.80;99.90;;;;;;7389243;19;20607;-79
2023/05/13 12:36:22;;;;;;;3.78;2.50;;;15.60;99.90;;;;;;7390664;19;20163;-80
2023/05/13 12:39:05;;;;;;;3.50;2.90;;;15.90;99.90;;;;;;7389462;19;20158;-77
2023/05/13 12:41:41;;;;;;;4.68;2.60;;;16.00;99.90;;;;;;7389543;19;20516;-78
2023/05/13 12:44:08;;;;;;;3.03;2.45;;;16.00;99.90;;;;;;7388969;19;20138;-79
2023/05/13 12:46:34;;;;;;;2.92;2.30;;;16.10;99.90;;;;;;7390739;19;20535;-78
2023/05/13 12:49:02;;;;;;;2.60;2.40;;;16.20;99.90;;;;;;7390326;19;20481;-79